Time;durP1;ratioP1;P1;durP2;ratioP2;P2;SDS_P1;SDS_P2;PMS_P1;PMS_P2;Temp;Humidity;BMP_temperature;BMP_pressure;BME280_temperature;BME280_humidity;BME280_pressure;Samples;Min_cycle;Max_cycle;Signal;HPM_P1;HPM_P2
2022/04/28 00:01:10;;;;;;;11.82;4.82;;;;;;;7.04;80.97;102855.28;5051785;28;20049;-51
2022/04/28 00:03:38;;;;;;;10.63;4.85;;;;;;;6.96;81.79;102849.31;5052021;28;20358;-51
2022/04/28 00:06:07;;;;;;;12.40;5.00;;;;;;;6.97;82.45;102858.03;5051669;28;20063;-51
2022/04/28 00:08:35;;;;;;;14.52;5.22;;;;;;;6.90;82.57;102858.16;5051497;28;20056;-49
2022/04/28 00:11:05;;;;;;;16.10;5.20;;;;;;;6.84;83.27;102863.47;5046364;28;20080;-52
2022/04/28 00:13:33;;;;;;;9.63;4.65;;;;;;;6.83;83.10;102868.75;5048262;28;20053;-48
2022/04/28 00:16:03;;;;;;;13.25;5.63;;;;;;;6.84;83.47;102868.72;5051571;28;20095;-50
2022/04/28 00:18:31;;;;;;;12.95;5.22;;;;;;;6.82;83.80;102864.41;5051663;28;20495;-46
2022/04/28 00:20:59;;;;;;;12.73;4.93;;;;;;;6.77;83.64;102864.47;5051534;28;20423;-50
2022/04/28 00:23:28;;;;;;;14.35;5.70;;;;;;;6.77;83.80;102864.47;5051156;28;20044;-49
2022/04/28 00:25:56;;;;;;;11.45;5.25;;;;;;;6.74;83.54;102861.94;5047082;28;20084;-52
2022/04/28 00:28:25;;;;;;;13.20;4.63;;;;;;;6.76;83.29;102867.97;5047110;28;20037;-49
2022/04/28 00:30:53;;;;;;;11.18;4.68;;;;;;;6.74;83.39;102867.16;5051702;28;20095;-49
2022/04/28 00:33:23;;;;;;;13.13;4.90;;;;;;;6.82;83.10;102870.50;5053636;28;20124;-51
2022/04/28 00:35:51;;;;;;;11.93;5.32;;;;;;;6.80;83.10;102863.56;5055340;28;20045;-52
2022/04/28 00:38:20;;;;;;;14.05;5.28;;;;;;;6.81;83.88;102866.16;5053798;28;20049;-48
2022/04/28 00:40:48;;;;;;;11.13;4.88;;;;;;;6.84;83.67;102867.84;5053167;28;20452;-49
2022/04/28 00:43:19;;;;;;;10.93;4.55;;;;;;;6.89;82.99;102869.50;5049896;28;20057;-49
2022/04/28 00:45:48;;;;;;;14.43;5.78;;;;;;;6.90;82.85;102873.84;5053446;28;20151;-50
2022/04/28 00:51:06;;;;;;;13.00;5.43;;;;;;;6.87;83.67;102870.41;5055214;28;20080;-52
2022/04/28 00:53:42;;;;;;;14.35;5.07;;;;;;;6.71;84.34;102872.44;5055051;28;20167;-51
2022/04/28 00:56:11;;;;;;;13.02;5.47;;;;;;;6.69;84.84;102861.97;5055099;28;20110;-51
2022/04/28 00:58:40;;;;;;;11.63;5.45;;;;;;;6.47;86.21;102871.06;5054870;28;20045;-50
2022/04/28 01:01:08;;;;;;;13.88;5.85;;;;;;;6.40;87.24;102868.53;5054539;28;20511;-48
2022/04/28 01:03:37;;;;;;;12.57;5.43;;;;;;;6.35;87.22;102872.13;5051061;28;20040;-52
2022/04/28 01:06:07;;;;;;;13.75;5.25;;;;;;;6.43;87.50;102872.88;5052069;28;20098;-50
2022/04/28 01:08:36;;;;;;;14.02;5.03;;;;;;;6.37;87.17;102875.59;5054499;28;21035;-50
2022/04/28 01:11:04;;;;;;;12.23;5.10;;;;;;;6.41;87.29;102874.66;5054820;28;20411;-48
2022/04/28 01:13:33;;;;;;;14.82;5.60;;;;;;;6.35;87.75;102870.34;5054171;28;20534;-51
2022/04/28 01:16:01;;;;;;;14.68;5.95;;;;;;;6.33;87.94;102880.00;5050651;28;20041;-49
2022/04/28 01:18:30;;;;;;;18.13;5.28;;;;;;;6.33;88.14;102872.16;5052044;28;20041;-51
2022/04/28 01:21:03;;;;;;;12.55;6.10;;;;;;;6.22;88.05;102872.31;5054416;28;20045;-52
2022/04/28 01:23:32;;;;;;;14.52;6.13;;;;;;;6.14;89.44;102870.69;5052075;28;20041;-48
2022/04/28 01:26:01;;;;;;;15.25;5.97;;;;;;;6.16;89.41;102864.56;5049317;28;20579;-51
2022/04/28 01:28:31;;;;;;;9.98;5.30;;;;;;;6.10;89.56;102867.25;5053997;28;20504;-50
2022/04/28 01:31:00;;;;;;;13.60;5.38;;;;;;;6.07;89.69;102873.38;5054142;28;20032;-49
2022/04/28 01:33:29;;;;;;;14.55;6.20;;;;;;;5.98;91.18;102862.19;5054358;28;20044;-48
2022/04/28 01:35:58;;;;;;;12.98;5.72;;;;;;;5.99;90.84;102867.41;5054342;28;20033;-51
2022/04/28 01:38:28;;;;;;;14.02;5.03;;;;;;;5.97;90.94;102873.50;5054046;28;20103;-53
2022/04/28 01:40:56;;;;;;;8.65;5.00;;;;;;;5.83;92.33;102871.91;5053854;28;20107;-49
2022/04/28 01:43:24;;;;;;;14.82;6.13;;;;;;;5.93;91.28;102872.66;5053210;28;20111;-51
2022/04/28 01:45:53;;;;;;;13.52;5.43;;;;;;;5.85;92.79;102867.56;5053660;28;20388;-53
2022/04/28 01:48:21;;;;;;;15.18;6.07;;;;;;;5.82;92.70;102867.59;5054056;28;20507;-49
2022/04/28 01:56:16;;;;;;;15.25;5.75;;;;;;;6.00;91.46;102868.25;5007109;28;20760;-49
2022/04/28 01:58:44;;;;;;;11.65;5.18;;;;;;;5.95;91.54;102870.91;5049963;28;20037;-51
2022/04/28 02:01:12;;;;;;;12.32;6.10;;;;;;;5.92;92.16;102865.72;5053044;28;20060;-50
2022/04/28 02:03:41;;;;;;;17.42;5.72;;;;;;;5.91;92.90;102872.69;5049903;28;20506;-50
2022/04/28 02:06:09;;;;;;;14.98;5.72;;;;;;;5.82;92.85;102871.94;5050486;28;20041;-50
2022/04/28 02:08:40;;;;;;;16.00;6.78;;;;;;;5.83;93.65;102871.91;5053448;28;20078;-53
2022/04/28 02:11:08;;;;;;;12.13;5.88;;;;;;;5.79;93.86;102870.22;5053734;28;20140;-50
2022/04/28 02:13:37;;;;;;;14.43;5.93;;;;;;;5.76;94.10;102865.06;5053613;28;20051;-49
2022/04/28 02:16:06;;;;;;;15.75;6.18;;;;;;;5.73;93.87;102873.78;5053626;28;20041;-52
2022/04/28 02:18:34;;;;;;;20.02;7.80;;;;;;;5.62;94.96;102873.06;5053471;28;20056;-52
2022/04/28 02:21:03;;;;;;;13.05;6.15;;;;;;;5.59;95.17;102879.19;5052132;28;20057;-52
2022/04/28 02:23:31;;;;;;;17.98;6.88;;;;;;;5.57;94.54;102877.47;5050070;28;20522;-48
2022/04/28 02:26:00;;;;;;;17.02;6.47;;;;;;;5.65;94.47;102888.69;5052220;28;20550;-48
2022/04/28 02:28:29;;;;;;;16.48;6.15;;;;;;;5.57;95.17;102885.31;5053404;28;20041;-49
2022/04/28 02:30:57;;;;;;;14.88;6.70;;;;;;;5.56;95.06;102894.88;5053441;28;20148;-46
2022/04/28 02:33:25;;;;;;;15.02;7.05;;;;;;;5.55;95.06;102890.53;5053158;28;20063;-53
2022/04/28 02:35:54;;;;;;;15.45;6.22;;;;;;;5.54;94.83;102894.03;5052688;28;20045;-53
2022/04/28 02:38:22;;;;;;;15.13;6.30;;;;;;;5.53;95.11;102896.66;5052984;28;20041;-49
2022/04/28 02:40:50;;;;;;;12.80;7.05;;;;;;;5.59;94.16;102892.22;5053094;28;20068;-52
2022/04/28 02:43:20;;;;;;;10.80;5.90;;;;;;;5.59;94.90;102889.63;5053107;28;20132;-48
2022/04/28 02:45:49;;;;;;;14.27;5.88;;;;;;;5.66;94.05;102885.19;5052981;28;20061;-49
2022/04/28 02:48:17;;;;;;;15.95;6.55;;;;;;;5.67;94.45;102886.94;5053065;28;20048;-49
2022/04/28 02:50:46;;;;;;;14.63;5.68;;;;;;;5.58;93.93;102885.28;5052929;28;20095;-51
2022/04/28 02:53:14;;;;;;;18.33;7.00;;;;;;;5.50;94.66;102891.47;5052273;28;20127;-53
2022/04/28 02:55:43;;;;;;;12.13;6.45;;;;;;;5.52;94.92;102887.97;5051318;28;20076;-50
2022/04/28 02:58:11;;;;;;;13.75;6.32;;;;;;;5.53;95.36;102887.06;5047255;28;20122;-48
2022/04/28 03:00:41;;;;;;;17.50;6.63;;;;;;;5.44;95.83;102888.94;5050410;28;20423;-52
2022/04/28 03:03:10;;;;;;;17.40;5.60;;;;;;;5.48;95.38;102891.50;5050418;28;20060;-49
2022/04/28 03:11:06;;;;;;;12.38;5.60;;;;;;;5.51;94.62;102888.84;5051342;28;20057;-53
2022/04/28 03:13:35;;;;;;;11.70;5.55;;;;;;;5.46;95.66;102882.81;5052202;28;20052;-49
2022/04/28 03:16:05;;;;;;;13.02;5.70;;;;;;;5.38;95.85;102884.63;5052260;28;20052;-53
2022/04/28 03:18:34;;;;;;;14.60;5.85;;;;;;;5.37;95.72;102889.00;5052362;28;20057;-52
2022/04/28 03:21:02;;;;;;;18.30;6.35;;;;;;;5.37;95.46;102893.34;5051350;28;20049;-52
2022/04/28 03:23:30;;;;;;;12.88;5.53;;;;;;;5.42;95.35;102887.19;5048994;28;20120;-51
2022/04/28 03:25:59;;;;;;;13.57;5.75;;;;;;;5.30;96.57;102895.16;5049816;28;20041;-54
2022/04/28 03:28:27;;;;;;;13.23;5.78;;;;;;;5.36;95.68;102891.63;5051981;28;20059;-52
2022/04/28 03:30:55;;;;;;;14.32;5.75;;;;;;;5.34;96.23;102899.47;5052137;28;20057;-49
2022/04/28 03:33:25;;;;;;;13.95;5.75;;;;;;;5.30;95.95;102894.28;5048656;28;20081;-48
2022/04/28 03:35:53;;;;;;;15.07;6.65;;;;;;;5.25;96.16;102891.75;5049572;28;20045;-52
2022/04/28 03:38:22;;;;;;;16.58;5.70;;;;;;;5.30;95.77;102891.69;5051931;28;20076;-54
2022/04/28 03:40:50;;;;;;;14.13;5.88;;;;;;;5.32;95.98;102896.00;5048911;28;20048;-51
2022/04/28 03:43:18;;;;;;;15.23;6.38;;;;;;;5.33;95.94;102889.03;5046549;28;20127;-49
2022/04/28 03:45:47;;;;;;;14.07;5.50;;;;;;;5.36;95.63;102889.88;5051103;28;20045;-49
2022/04/28 03:48:16;;;;;;;13.40;5.70;;;;;;;5.29;95.47;102889.94;5051592;28;20044;-47
2022/04/28 03:50:45;;;;;;;14.43;6.07;;;;;;;5.33;95.40;102889.03;5052025;28;20493;-47
2022/04/28 03:53:14;;;;;;;16.27;6.22;;;;;;;5.29;95.38;102889.94;5051700;28;20041;-51
2022/04/28 03:55:42;;;;;;;15.52;6.00;;;;;;;5.31;95.42;102888.19;5051848;28;20110;-51
2022/04/28 03:58:10;;;;;;;14.00;6.03;;;;;;;5.33;95.86;102889.03;5046931;28;20048;-51
2022/04/28 04:00:39;;;;;;;13.38;6.22;;;;;;;5.25;95.84;102897.81;5048685;28;20825;-48
2022/04/28 04:03:07;;;;;;;13.40;6.07;;;;;;;5.24;95.84;102898.69;5051685;28;20094;-52
2022/04/28 04:05:36;;;;;;;18.58;6.80;;;;;;;5.20;96.68;102894.38;5051925;28;20447;-50
2022/04/28 04:08:06;;;;;;;14.38;6.15;;;;;;;5.22;96.58;102895.25;5047894;28;20334;-51
2022/04/28 04:10:34;;;;;;;13.20;6.57;;;;;;;5.20;97.02;102897.00;5046493;28;20045;-48
2022/04/28 04:13:02;;;;;;;14.68;6.13;;;;;;;5.11;97.75;102897.06;5049761;28;20095;-53
2022/04/28 04:15:32;;;;;;;16.48;7.35;;;;;;;5.04;98.40;102898.88;5050512;28;20049;-49
2022/04/28 04:18:00;;;;;;;14.77;6.65;;;;;;;5.13;97.90;102895.34;5049452;28;20132;-49
2022/04/28 04:20:29;;;;;;;15.02;6.63;;;;;;;5.13;98.06;102895.34;5048441;28;20048;-48
2022/04/28 04:22:59;;;;;;;14.93;6.82;;;;;;;5.12;98.11;102890.97;5045738;28;20045;-47
2022/04/28 04:25:28;;;;;;;14.68;6.50;;;;;;;5.12;98.29;102890.97;5049739;28;20048;-52
2022/04/28 04:28:01;;;;;;;14.55;6.57;;;;;;;5.03;99.27;102898.88;5044048;28;20555;-50
2022/04/28 04:33:15;;;;;;;13.52;6.22;;;;;;;5.00;99.68;102896.31;5050290;28;20057;-49
2022/04/28 04:35:44;;;;;;;15.25;7.30;;;;;;;5.04;99.76;102903.22;5050320;28;20483;-49
2022/04/28 04:38:12;;;;;;;15.68;7.20;;;;;;;5.02;99.79;102910.22;5050762;28;20068;-53
2022/04/28 04:40:48;;;;;;;14.98;6.20;;;;;;;5.02;99.80;102912.84;5050630;28;20666;-51
2022/04/28 04:43:16;;;;;;;15.30;6.65;;;;;;;5.05;100.00;102916.25;5050154;28;20393;-50
2022/04/28 04:45:45;;;;;;;15.98;5.88;;;;;;;5.08;100.00;102915.38;5050115;28;20063;-48
2022/04/28 04:48:14;;;;;;;13.45;7.53;;;;;;;5.08;100.00;102917.97;5049939;28;20098;-53
2022/04/28 04:50:42;;;;;;;14.07;6.15;;;;;;;5.08;100.00;102917.97;5050481;28;20092;-51
2022/04/28 04:53:11;;;;;;;14.52;6.65;;;;;;;5.09;100.00;102930.16;5050166;28;20076;-48
2022/04/28 04:55:39;;;;;;;15.82;5.78;;;;;;;5.14;100.00;102930.09;5050368;28;20045;-51
2022/04/28 04:58:09;;;;;;;18.67;6.35;;;;;;;5.07;100.00;102929.28;5050032;28;20076;-52
2022/04/28 05:00:37;;;;;;;15.23;6.05;;;;;;;5.05;100.00;102933.66;5050049;28;20065;-52
2022/04/28 05:03:06;;;;;;;22.38;6.07;;;;;;;5.12;100.00;102939.69;5045839;28;20139;-50
2022/04/28 05:05:34;;;;;;;13.60;6.03;;;;;;;5.08;100.00;102942.34;5047782;28;20554;-48
2022/04/28 05:08:03;;;;;;;13.63;6.53;;;;;;;5.15;100.00;102940.50;5001191;28;1401781;-50
2022/04/28 05:10:31;;;;;;;13.50;6.25;;;;;;;5.09;99.83;102940.59;5047052;28;20488;-49
2022/04/28 05:13:00;;;;;;;17.20;6.47;;;;;;;5.15;99.24;102944.88;5044635;28;20049;-50
2022/04/28 05:15:29;;;;;;;16.00;5.90;;;;;;;5.15;98.90;102940.50;5050392;28;20128;-49
2022/04/28 05:17:58;;;;;;;12.32;5.80;;;;;;;5.14;98.94;102944.03;5049825;28;20095;-51
2022/04/28 05:20:28;;;;;;;15.88;6.25;;;;;;;5.23;98.50;102950.88;5051187;28;20514;-53
2022/04/28 05:22:57;;;;;;;17.52;6.20;;;;;;;5.31;97.89;102956.03;5052698;28;20041;-51
2022/04/28 05:25:25;;;;;;;19.08;5.90;;;;;;;5.29;98.06;102957.78;5054007;28;20118;-52
2022/04/28 05:27:53;;;;;;;11.98;6.13;;;;;;;5.33;98.44;102959.50;5047141;28;20040;-48
2022/04/28 05:30:22;;;;;;;15.00;6.20;;;;;;;5.37;98.16;102963.81;5051620;28;20067;-51
2022/04/28 05:32:51;;;;;;;14.00;6.30;;;;;;;5.43;98.01;102963.75;5053271;28;20495;-51
2022/04/28 05:35:20;;;;;;;15.68;5.90;;;;;;;5.48;97.16;102966.31;5053989;28;20040;-48
2022/04/28 05:37:48;;;;;;;15.38;6.20;;;;;;;5.52;96.72;102970.63;5054220;28;20203;-48
2022/04/28 05:40:16;;;;;;;12.98;5.47;;;;;;;5.57;96.30;102972.28;5050302;28;20052;-49
2022/04/28 05:45:43;;;;;;;15.75;6.30;;;;;;;5.68;94.54;102976.56;5051907;28;20384;-51
2022/04/28 05:48:14;;;;;;;13.23;6.13;;;;;;;5.71;93.54;102974.78;5050195;28;20049;-49
2022/04/28 05:50:44;;;;;;;13.13;5.80;;;;;;;5.77;92.83;102976.47;5053302;28;20484;-51
2022/04/28 05:53:12;;;;;;;13.93;6.25;;;;;;;5.81;92.30;102983.38;5054318;28;20045;-47
2022/04/28 05:55:41;;;;;;;14.20;6.18;;;;;;;5.90;92.15;102988.50;5054200;28;20071;-47
2022/04/28 05:58:09;;;;;;;12.60;6.38;;;;;;;5.98;91.99;102987.56;5051674;28;20037;-48
2022/04/28 06:00:38;;;;;;;14.35;5.78;;;;;;;6.06;92.00;102981.38;5050183;28;20069;-50
2022/04/28 06:03:06;;;;;;;14.07;5.88;;;;;;;6.13;91.77;102984.78;5053210;28;20094;-48
2022/04/28 06:05:36;;;;;;;16.60;6.65;;;;;;;6.20;91.07;102986.44;5053639;28;20064;-47
2022/04/28 06:08:05;;;;;;;13.98;6.60;;;;;;;6.30;91.23;102976.75;5053686;28;20057;-47
2022/04/28 06:10:34;;;;;;;18.40;6.40;;;;;;;6.43;90.26;102985.25;5053623;28;20045;-51
2022/04/28 06:13:02;;;;;;;13.77;5.93;;;;;;;6.54;89.93;102985.13;5050070;28;20057;-49
2022/04/28 06:15:31;;;;;;;14.52;6.05;;;;;;;6.66;89.78;102994.56;5049848;28;20118;-51
2022/04/28 06:18:00;;;;;;;15.60;6.47;;;;;;;6.75;89.46;103000.50;5052839;28;20123;-51
2022/04/28 06:20:28;;;;;;;11.88;5.90;;;;;;;6.85;89.19;103001.22;5053253;28;20116;-49
2022/04/28 06:22:58;;;;;;;11.10;5.85;;;;;;;7.00;88.58;102999.28;5053413;28;20049;-47
2022/04/28 06:25:28;;;;;;;15.82;5.47;;;;;;;7.10;85.49;103008.69;5050856;28;20072;-50
2022/04/28 06:27:56;;;;;;;9.98;5.38;;;;;;;7.18;83.73;103006.81;5047892;28;20533;-51
2022/04/28 06:30:24;;;;;;;14.82;5.72;;;;;;;7.23;83.74;103012.00;5051459;28;20041;-48
2022/04/28 06:32:53;;;;;;;14.43;5.18;;;;;;;7.36;83.89;103016.13;5052476;28;20110;-48
2022/04/28 06:35:21;;;;;;;11.27;5.38;;;;;;;7.49;83.71;103021.16;5049146;28;20049;-50
2022/04/28 06:37:49;;;;;;;14.45;5.90;;;;;;;7.59;82.64;103018.34;5050726;28;20099;-50
2022/04/28 06:40:19;;;;;;;19.00;5.78;;;;;;;7.72;81.52;103028.59;5049876;28;20067;-48
2022/04/28 06:42:50;;;;;;;14.25;5.82;;;;;;;7.86;80.74;103028.34;5047259;28;20053;-51
2022/04/28 06:45:19;;;;;;;14.10;5.20;;;;;;;7.98;79.60;103032.50;5052394;28;20098;-49
2022/04/28 06:47:47;;;;;;;9.25;4.45;;;;;;;8.12;78.92;103027.81;5052844;28;20045;-50
2022/04/28 06:50:15;;;;;;;10.48;4.40;;;;;;;8.21;78.54;103027.66;5052683;28;20387;-51
2022/04/28 06:52:44;;;;;;;11.13;4.93;;;;;;;8.33;77.24;103029.16;5052998;28;20075;-48
2022/04/28 06:55:12;;;;;;;13.32;5.28;;;;;;;8.45;77.10;103039.41;5052482;28;20048;-49
2022/04/28 06:57:42;;;;;;;12.38;4.93;;;;;;;8.49;76.18;103034.09;5052579;28;20045;-49
2022/04/28 07:00:11;;;;;;;12.48;5.00;;;;;;;8.63;76.16;103038.16;5052726;28;20068;-52
2022/04/28 07:02:40;;;;;;;10.13;3.83;;;;;;;8.77;75.14;103031.75;5052770;28;20044;-54
2022/04/28 07:05:09;;;;;;;12.93;4.40;;;;;;;8.92;74.37;103046.28;5050350;28;20045;-53
2022/04/28 07:07:37;;;;;;;14.88;5.20;;;;;;;9.08;73.83;103031.00;5048913;28;20412;-51
2022/04/28 07:10:07;;;;;;;13.30;5.72;;;;;;;9.03;73.10;103044.25;5050955;28;20056;-52
2022/04/28 07:12:35;;;;;;;11.30;4.93;;;;;;;9.17;73.33;103043.91;5046891;28;20132;-48
2022/04/28 07:15:06;;;;;;;12.60;4.38;;;;;;;9.39;72.05;103048.66;5050012;28;20392;-51
2022/04/28 07:17:34;;;;;;;11.38;4.93;;;;;;;9.57;71.45;103045.56;5052673;28;20076;-51
2022/04/28 07:20:02;;;;;;;11.50;4.88;;;;;;;9.74;71.69;103046.88;5049928;28;20043;-49
2022/04/28 07:22:30;;;;;;;12.25;4.60;;;;;;;9.82;69.66;103048.38;5048660;28;20095;-48
2022/04/28 07:24:59;;;;;;;11.00;4.60;;;;;;;9.95;70.01;103050.69;5052427;28;20051;-51
2022/04/28 07:27:27;;;;;;;11.30;4.28;;;;;;;10.09;69.08;103061.69;5052291;28;20531;-50
2022/04/28 07:29:55;;;;;;;8.55;4.40;;;;;;;10.21;68.13;103047.34;5052428;28;20399;-52
2022/04/28 07:32:25;;;;;;;11.95;4.65;;;;;;;10.37;66.17;103053.03;5050254;28;20041;-51
2022/04/28 07:34:54;;;;;;;12.35;5.40;;;;;;;10.47;66.21;103051.00;5048850;28;20531;-51
2022/04/28 07:37:22;;;;;;;10.57;4.93;;;;;;;10.51;65.54;103051.78;5052676;28;20507;-51
2022/04/28 07:39:50;;;;;;;8.88;4.00;;;;;;;10.69;63.97;103058.25;5050366;28;20041;-52
2022/04/28 07:42:19;;;;;;;8.88;4.20;;;;;;;10.73;64.38;103059.88;5046661;28;20047;-53
2022/04/28 07:44:47;;;;;;;11.13;4.40;;;;;;;10.91;64.09;103069.84;5050338;28;20045;-51
2022/04/28 07:47:17;;;;;;;10.07;4.30;;;;;;;11.00;62.99;103060.78;5051409;28;20102;-49
2022/04/28 07:49:46;;;;;;;11.52;4.38;;;;;;;11.08;64.14;103052.66;5051873;28;20471;-52
2022/04/28 07:52:17;;;;;;;8.75;4.30;;;;;;;11.29;62.59;103053.75;5051912;28;20053;-46
2022/04/28 07:54:46;;;;;;;12.63;4.78;;;;;;;11.49;61.63;103056.56;5051788;28;20033;-52
2022/04/28 07:57:15;;;;;;;11.23;4.50;;;;;;;11.57;60.76;103055.44;5052072;28;20041;-52
2022/04/28 07:59:43;;;;;;;10.88;4.38;;;;;;;11.76;60.58;103064.41;5051922;28;20041;-49
2022/04/28 08:02:13;;;;;;;12.60;4.25;;;;;;;11.79;60.52;103064.34;5047955;28;20044;-48
2022/04/28 08:04:43;;;;;;;13.05;4.07;;;;;;;12.06;59.82;103073.97;5047691;28;20407;-48
2022/04/28 08:07:12;;;;;;;12.15;4.38;;;;;;;12.25;59.36;103074.16;5052064;28;20453;-51
2022/04/28 08:09:41;;;;;;;12.13;4.20;;;;;;;12.30;58.37;103072.22;5051375;28;20492;-52
2022/04/28 08:12:09;;;;;;;7.15;3.95;;;;;;;12.36;58.15;103071.13;5046866;28;20514;-50
2022/04/28 08:14:57;;;;;;;11.80;4.20;;;;;;;12.61;57.52;103085.13;5047548;28;20379;-51
2022/04/28 08:17:26;;;;;;;11.23;3.42;;;;;;;12.76;57.13;103081.03;5051735;28;20044;-50
2022/04/28 08:19:54;;;;;;;8.38;3.65;;;;;;;12.98;55.97;103086.31;5049761;28;20040;-52
2022/04/28 08:22:27;;;;;;;11.65;4.32;;;;;;;13.26;55.68;103085.19;5048153;28;20094;-48
2022/04/28 08:24:55;;;;;;;12.30;3.75;;;;;;;13.45;55.07;103082.69;5050530;28;20049;-48
2022/04/28 08:27:25;;;;;;;10.13;3.30;;;;;;;13.60;53.56;103086.47;5046039;28;20056;-51
2022/04/28 08:29:53;;;;;;;9.85;3.63;;;;;;;13.51;53.86;103090.38;5048310;28;20126;-53
2022/04/28 08:32:22;;;;;;;13.25;3.80;;;;;;;13.75;52.88;103089.41;5051345;28;20045;-48
2022/04/28 08:34:50;;;;;;;12.27;3.92;;;;;;;13.75;51.87;103084.94;5051515;28;20475;-52
2022/04/28 08:37:18;;;;;;;11.73;4.10;;;;;;;13.72;53.51;103086.88;5051496;28;20140;-53
2022/04/28 08:39:48;;;;;;;12.07;3.97;;;;;;;13.94;52.50;103086.81;5051500;28;20057;-52
2022/04/28 08:42:20;;;;;;;12.60;4.07;;;;;;;14.24;52.30;103089.88;5051727;28;20056;-49
2022/04/28 08:44:49;;;;;;;12.40;3.97;;;;;;;14.23;51.02;103088.16;5051553;28;20048;-52
2022/04/28 08:47:18;;;;;;;11.35;3.95;;;;;;;14.23;50.70;103082.00;5051360;28;20041;-52
2022/04/28 08:49:49;;;;;;;13.93;4.25;;;;;;;14.54;50.30;103081.44;5051068;28;20551;-52
2022/04/28 08:52:18;;;;;;;9.60;3.35;;;;;;;14.69;51.79;103086.06;5050550;28;20041;-53
2022/04/28 08:54:48;;;;;;;10.13;3.60;;;;;;;14.82;51.41;103080.16;5054089;28;20411;-53
2022/04/28 08:57:17;;;;;;;8.95;3.58;;;;;;;14.94;49.47;103076.94;5052682;28;20096;-51
2022/04/28 08:59:46;;;;;;;12.00;3.60;;;;;;;15.09;49.48;103083.28;5051053;28;20055;-53
2022/04/28 09:02:15;;;;;;;12.95;4.13;;;;;;;14.99;48.53;103082.88;5053851;28;20045;-53
2022/04/28 09:04:44;;;;;;;9.23;3.22;;;;;;;15.38;48.79;103075.69;5054542;28;20041;-52
2022/04/28 09:07:12;;;;;;;10.02;4.07;;;;;;;15.36;48.81;103083.69;5054290;28;20059;-52
2022/04/28 09:09:41;;;;;;;13.25;3.92;;;;;;;15.52;47.63;103080.28;5054197;28;20049;-53
2022/04/28 09:12:11;;;;;;;14.02;4.70;;;;;;;15.33;47.44;103080.38;5054587;28;20094;-50
2022/04/28 09:14:44;;;;;;;11.75;4.35;;;;;;;15.42;48.01;103087.84;5055067;28;20072;-51
2022/04/28 09:17:12;;;;;;;10.05;4.20;;;;;;;15.60;47.71;103077.22;5054749;28;20053;-53
2022/04/28 09:19:41;;;;;;;9.80;4.00;;;;;;;15.80;46.21;103073.59;5054714;28;20033;-52
2022/04/28 09:22:13;;;;;;;9.75;3.58;;;;;;;15.96;46.03;103063.88;5054760;28;20049;-56
2022/04/28 09:24:44;;;;;;;12.85;3.97;;;;;;;16.16;45.03;103070.78;5054862;28;20503;-52
2022/04/28 09:27:15;;;;;;;9.55;3.60;;;;;;;16.16;45.53;103076.09;5054435;28;20053;-53
2022/04/28 09:29:47;;;;;;;8.43;3.40;;;;;;;16.37;45.97;103071.44;5051138;28;20549;-51
2022/04/28 09:32:17;;;;;;;14.20;4.40;;;;;;;16.18;44.89;103068.94;5051145;28;20059;-48
2022/04/28 09:35:11;;;;;;;9.25;4.03;;;;;;;15.78;46.40;103057.72;5052301;28;20049;-49
2022/04/28 09:37:40;;;;;;;9.75;3.40;;;;;;;16.10;44.86;103065.81;5050502;28;20052;-53
2022/04/28 09:42:58;;;;;;;10.80;3.70;;;;;;;16.87;43.33;103069.53;5048128;28;20075;-52
2022/04/28 09:45:26;;;;;;;12.45;3.97;;;;;;;17.12;43.51;103060.19;5051547;28;20098;-52
2022/04/28 09:47:59;;;;;;;10.85;4.20;;;;;;;17.28;42.76;103069.94;5053782;28;20037;-52
2022/04/28 09:50:31;;;;;;;10.48;3.92;;;;;;;16.98;44.95;103066.31;5053799;28;20080;-50
2022/04/28 09:53:05;;;;;;;12.20;3.92;;;;;;;17.01;43.27;103066.13;5053164;28;20041;-53
2022/04/28 09:55:34;;;;;;;12.32;4.65;;;;;;;17.15;43.27;103059.16;5050223;28;20048;-52
2022/04/28 09:58:06;;;;;;;9.40;4.20;;;;;;;16.83;42.37;103053.88;5050252;28;20156;-49
2022/04/28 10:00:34;;;;;;;10.98;3.88;;;;;;;16.75;43.31;103056.94;5053896;28;20116;-50
2022/04/28 10:03:03;;;;;;;11.48;3.95;;;;;;;16.98;43.49;103060.97;5053680;28;20056;-51
2022/04/28 10:05:33;;;;;;;8.35;2.90;;;;;;;17.27;41.10;103057.59;5053380;28;20063;-49
2022/04/28 10:08:03;;;;;;;7.97;3.53;;;;;;;17.50;40.90;103048.25;5053505;28;20411;-51
2022/04/28 10:10:32;;;;;;;9.73;3.35;;;;;;;18.03;40.73;103056.59;5053636;28;20037;-51
2022/04/28 10:13:01;;;;;;;9.30;3.00;;;;;;;18.21;40.27;103044.78;5053719;28;20049;-48
2022/04/28 10:15:33;;;;;;;9.52;4.10;;;;;;;18.23;40.24;103050.03;5053678;28;20487;-54
2022/04/28 10:18:08;;;;;;;9.90;3.90;;;;;;;18.13;39.85;103040.91;5053661;28;20452;-47
2022/04/28 10:20:40;;;;;;;9.13;3.75;;;;;;;18.29;40.78;103036.31;5053230;28;20041;-52
2022/04/28 10:35:02;;;;;;;11.40;4.38;;;;;;;18.70;39.35;103032.78;5052712;28;20135;-52
2022/04/28 10:37:35;;;;;;;9.23;4.25;;;;;;;19.19;38.27;103033.19;5048086;28;20056;-51
2022/04/28 10:40:05;;;;;;;10.98;3.88;;;;;;;19.27;38.46;103036.19;5051941;28;20127;-52
2022/04/28 10:43:19;;;;;;;11.60;4.13;;;;;;;19.31;38.08;103032.34;5053039;28;20550;-54
2022/04/28 10:45:49;;;;;;;10.32;4.40;;;;;;;19.25;37.40;103028.28;5008308;28;20444;-51
2022/04/28 10:48:28;;;;;;;10.07;4.15;;;;;;;19.54;37.32;103033.44;5006340;28;20069;-51
2022/04/28 10:51:15;;;;;;;12.55;4.88;;;;;;;19.46;37.52;103027.78;5036392;28;20495;-48
2022/04/28 10:54:05;;;;;;;13.93;4.45;;;;;;;19.57;36.04;103021.72;5049265;28;20076;-52
2022/04/28 10:57:01;;;;;;;10.80;4.07;;;;;;;19.11;37.04;103027.50;5051268;28;20083;-50
2022/04/28 10:59:34;;;;;;;13.00;4.63;;;;;;;18.85;37.83;103027.41;5053199;28;20064;-53
2022/04/28 11:02:49;;;;;;;13.90;4.57;;;;;;;19.21;36.87;103023.25;5051524;28;20048;-52
2022/04/28 11:05:35;;;;;;;9.45;3.35;;;;;;;19.93;37.46;103025.44;5049279;28;20055;-51
2022/04/28 11:08:04;;;;;;;10.30;4.28;;;;;;;20.06;37.45;103031.63;5052020;28;20535;-47
2022/04/28 11:11:03;;;;;;;9.38;4.20;;;;;;;19.95;35.41;103023.53;5052149;28;20124;-51
2022/04/28 11:13:32;;;;;;;10.15;4.35;;;;;;;20.57;35.22;103027.97;5052816;28;20123;-48
2022/04/28 11:16:01;;;;;;;9.00;4.30;;;;;;;20.27;35.74;103028.38;5052116;28;20056;-52
2022/04/28 11:18:30;;;;;;;9.02;4.78;;;;;;;19.95;36.14;103026.19;5052525;28;20128;-51
2022/04/28 11:21:04;;;;;;;9.57;4.72;;;;;;;20.20;36.15;103027.13;5052531;28;20510;-50
2022/04/28 11:23:37;;;;;;;11.10;4.85;;;;;;;20.15;35.37;103016.78;5050905;28;20784;-50
2022/04/28 11:26:06;;;;;;;7.93;4.30;;;;;;;20.06;35.13;103009.41;5047562;28;20152;-50
2022/04/28 11:28:41;;;;;;;11.88;4.80;;;;;;;20.12;35.46;103016.97;5052121;28;20083;-51
2022/04/28 11:31:12;;;;;;;11.15;4.75;;;;;;;19.96;36.25;103014.56;5052281;28;20056;-53
2022/04/28 11:33:43;;;;;;;11.50;4.70;;;;;;;19.99;37.34;103006.31;5052344;28;20079;-48
2022/04/28 11:36:25;;;;;;;11.40;4.70;;;;;;;20.12;36.54;103006.28;5049387;28;20098;-51
2022/04/28 11:38:57;;;;;;;11.27;5.07;;;;;;;20.17;35.50;103006.81;5047924;28;20456;-51
2022/04/28 11:41:32;;;;;;;11.50;5.20;;;;;;;20.32;35.72;103007.53;5051871;28;20438;-53
2022/04/28 11:44:08;;;;;;;11.68;4.60;;;;;;;20.32;35.27;103004.84;5052430;28;20538;-53
2022/04/28 11:46:38;;;;;;;8.57;4.40;;;;;;;20.60;34.63;103006.34;5052285;28;20044;-53
2022/04/28 11:49:07;;;;;;;9.68;4.53;;;;;;;20.79;33.80;102998.81;5048751;28;20057;-54
2022/04/28 11:51:37;;;;;;;11.40;4.78;;;;;;;21.07;33.32;102990.38;5048240;28;20045;-51
2022/04/28 11:54:19;;;;;;;13.23;6.05;;;;;;;20.58;34.38;102999.41;5051929;28;20091;-52
2022/04/28 11:56:48;;;;;;;8.57;4.27;;;;;;;20.98;34.66;102996.44;5051572;28;20056;-50
2022/04/28 11:59:17;;;;;;;11.57;5.00;;;;;;;20.76;34.77;103002.56;5051268;28;20057;-51
2022/04/28 12:01:46;;;;;;;11.70;4.35;;;;;;;21.34;33.83;102996.44;5051262;28;20060;-53
2022/04/28 12:04:16;;;;;;;8.90;4.65;;;;;;;21.04;34.41;103000.50;5051828;28;20049;-49
2022/04/28 12:06:50;;;;;;;7.90;4.43;;;;;;;21.41;33.11;103000.31;5051975;28;20057;-53
2022/04/28 12:14:51;;;;;;;10.20;4.53;;;;;;;21.24;33.34;103001.63;5048328;28;20102;-49